Terminal Aerodrome Forecast
Issued by NWS

Home | Current Version | Previous Version | Graphics & Text | Print | Product List | Glossary On
Versions: 1 2 3 4 5 6 7 8 9 10 11 12 13 14
000
FTUS43 KIWX 262320
TAFSBN
TAF
KSBN 262320Z 2700/2724 24010KT P6SM BKN100
     FM270200 16006KT P6SM VCTS OVC040CB
     FM270800 18010KT P6SM -SHRA OVC050
     FM271800 25015KT P6SM OVC020
     FM272200 25013KT P6SM BKN035=

USA.gov is the U.S. government's official web portal to all federal, state and local government web resources and services.